sensor_id;sensor_type;location;lat;lon;timestamp;P1;durP1;ratioP1;P2;durP2;ratioP2
40150;SDS011;25866;52.420;10.640;2023-05-10T00:02:16;4.00;;;2.78;;
40150;SDS011;25866;52.420;10.640;2023-05-10T00:04:41;3.45;;;2.83;;
40150;SDS011;25866;52.420;10.640;2023-05-10T00:07:07;4.82;;;2.67;;
40150;SDS011;25866;52.420;10.640;2023-05-10T00:09:33;5.68;;;2.95;;
40150;SDS011;25866;52.420;10.640;2023-05-10T00:11:59;4.43;;;2.90;;
40150;SDS011;25866;52.420;10.640;2023-05-10T00:14:24;3.90;;;3.08;;
40150;SDS011;25866;52.420;10.640;2023-05-10T00:16:50;4.22;;;2.30;;
40150;SDS011;25866;52.420;10.640;2023-05-10T00:19:16;4.20;;;2.83;;
40150;SDS011;25866;52.420;10.640;2023-05-10T00:21:41;3.70;;;2.70;;
40150;SDS011;25866;52.420;10.640;2023-05-10T00:24:07;5.53;;;3.10;;
40150;SDS011;25866;52.420;10.640;2023-05-10T00:26:33;3.67;;;2.80;;
40150;SDS011;25866;52.420;10.640;2023-05-10T00:29:07;10.57;;;2.92;;
40150;SDS011;25866;52.420;10.640;2023-05-10T00:31:33;4.00;;;2.65;;
40150;SDS011;25866;52.420;10.640;2023-05-10T00:33:58;5.80;;;2.83;;
40150;SDS011;25866;52.420;10.640;2023-05-10T00:36:24;4.97;;;2.97;;
40150;SDS011;25866;52.420;10.640;2023-05-10T00:38:50;3.58;;;2.78;;
40150;SDS011;25866;52.420;10.640;2023-05-10T00:41:16;3.30;;;2.70;;
40150;SDS011;25866;52.420;10.640;2023-05-10T00:43:42;4.03;;;2.90;;
40150;SDS011;25866;52.420;10.640;2023-05-10T00:46:08;4.22;;;2.53;;
40150;SDS011;25866;52.420;10.640;2023-05-10T00:48:35;4.75;;;3.13;;
40150;SDS011;25866;52.420;10.640;2023-05-10T00:51:01;7.20;;;3.10;;
40150;SDS011;25866;52.420;10.640;2023-05-10T00:53:28;7.75;;;3.08;;
40150;SDS011;25866;52.420;10.640;2023-05-10T00:55:57;7.78;;;2.70;;
40150;SDS011;25866;52.420;10.640;2023-05-10T00:58:24;6.45;;;2.70;;
40150;SDS011;25866;52.420;10.640;2023-05-10T01:00:54;3.90;;;2.58;;
40150;SDS011;25866;52.420;10.640;2023-05-10T01:03:22;3.47;;;2.67;;
40150;SDS011;25866;52.420;10.640;2023-05-10T01:05:47;3.45;;;2.55;;
40150;SDS011;25866;52.420;10.640;2023-05-10T01:08:13;5.13;;;2.67;;
40150;SDS011;25866;52.420;10.640;2023-05-10T01:10:39;7.45;;;2.95;;
40150;SDS011;25866;52.420;10.640;2023-05-10T01:13:05;3.92;;;2.53;;
40150;SDS011;25866;52.420;10.640;2023-05-10T01:15:31;4.45;;;2.50;;
40150;SDS011;25866;52.420;10.640;2023-05-10T01:17:57;6.53;;;2.97;;
40150;SDS011;25866;52.420;10.640;2023-05-10T01:20:24;8.30;;;3.03;;
40150;SDS011;25866;52.420;10.640;2023-05-10T01:23:04;5.18;;;2.72;;
40150;SDS011;25866;52.420;10.640;2023-05-10T01:31:59;3.92;;;3.00;;
40150;SDS011;25866;52.420;10.640;2023-05-10T01:37:54;8.88;;;2.95;;
40150;SDS011;25866;52.420;10.640;2023-05-10T01:41:35;4.57;;;2.80;;
40150;SDS011;25866;52.420;10.640;2023-05-10T01:46:35;5.85;;;2.53;;
40150;SDS011;25866;52.420;10.640;2023-05-10T01:49:02;4.70;;;2.80;;
40150;SDS011;25866;52.420;10.640;2023-05-10T01:52:08;6.47;;;3.03;;
40150;SDS011;25866;52.420;10.640;2023-05-10T01:54:34;3.15;;;2.67;;
40150;SDS011;25866;52.420;10.640;2023-05-10T01:57:03;4.32;;;3.00;;
40150;SDS011;25866;52.420;10.640;2023-05-10T01:59:34;3.00;;;2.70;;
40150;SDS011;25866;52.420;10.640;2023-05-10T02:02:02;4.85;;;2.67;;
40150;SDS011;25866;52.420;10.640;2023-05-10T02:04:29;3.20;;;2.88;;
40150;SDS011;25866;52.420;10.640;2023-05-10T02:06:56;6.68;;;2.80;;
40150;SDS011;25866;52.420;10.640;2023-05-10T02:09:22;3.88;;;2.83;;
40150;SDS011;25866;52.420;10.640;2023-05-10T02:11:50;5.20;;;2.65;;
40150;SDS011;25866;52.420;10.640;2023-05-10T02:14:16;5.47;;;2.70;;
40150;SDS011;25866;52.420;10.640;2023-05-10T02:16:44;5.93;;;3.00;;
40150;SDS011;25866;52.420;10.640;2023-05-10T02:19:12;3.83;;;2.67;;
40150;SDS011;25866;52.420;10.640;2023-05-10T02:21:40;7.88;;;2.90;;
40150;SDS011;25866;52.420;10.640;2023-05-10T02:24:07;2.92;;;2.63;;
40150;SDS011;25866;52.420;10.640;2023-05-10T02:26:35;3.40;;;2.90;;
40150;SDS011;25866;52.420;10.640;2023-05-10T02:29:05;3.70;;;3.25;;
40150;SDS011;25866;52.420;10.640;2023-05-10T02:31:32;3.28;;;2.97;;
40150;SDS011;25866;52.420;10.640;2023-05-10T02:33:58;5.05;;;3.00;;
40150;SDS011;25866;52.420;10.640;2023-05-10T02:36:26;6.30;;;3.15;;
40150;SDS011;25866;52.420;10.640;2023-05-10T02:39:01;3.85;;;2.88;;
40150;SDS011;25866;52.420;10.640;2023-05-10T02:41:27;5.03;;;2.72;;
40150;SDS011;25866;52.420;10.640;2023-05-10T02:43:56;3.55;;;2.92;;
40150;SDS011;25866;52.420;10.640;2023-05-10T02:46:26;6.57;;;3.17;;
40150;SDS011;25866;52.420;10.640;2023-05-10T02:48:51;3.78;;;2.78;;
40150;SDS011;25866;52.420;10.640;2023-05-10T02:51:18;4.68;;;3.10;;
40150;SDS011;25866;52.420;10.640;2023-05-10T02:53:46;5.05;;;2.80;;
40150;SDS011;25866;52.420;10.640;2023-05-10T02:56:20;3.80;;;2.80;;
40150;SDS011;25866;52.420;10.640;2023-05-10T02:58:55;3.67;;;2.92;;
40150;SDS011;25866;52.420;10.640;2023-05-10T03:01:21;4.38;;;3.20;;
40150;SDS011;25866;52.420;10.640;2023-05-10T03:03:46;4.30;;;3.15;;
40150;SDS011;25866;52.420;10.640;2023-05-10T03:06:12;4.70;;;3.20;;
40150;SDS011;25866;52.420;10.640;2023-05-10T03:08:38;6.63;;;2.92;;
40150;SDS011;25866;52.420;10.640;2023-05-10T03:14:13;5.97;;;3.00;;
40150;SDS011;25866;52.420;10.640;2023-05-10T03:16:52;6.43;;;2.80;;
40150;SDS011;25866;52.420;10.640;2023-05-10T03:19:22;8.00;;;3.58;;
40150;SDS011;25866;52.420;10.640;2023-05-10T03:21:57;4.32;;;3.30;;
40150;SDS011;25866;52.420;10.640;2023-05-10T03:24:28;3.97;;;2.70;;
40150;SDS011;25866;52.420;10.640;2023-05-10T03:26:56;5.45;;;3.00;;
40150;SDS011;25866;52.420;10.640;2023-05-10T03:29:34;4.63;;;3.17;;
40150;SDS011;25866;52.420;10.640;2023-05-10T03:32:01;6.18;;;2.85;;
40150;SDS011;25866;52.420;10.640;2023-05-10T03:34:27;5.25;;;3.25;;
40150;SDS011;25866;52.420;10.640;2023-05-10T03:36:56;4.53;;;2.90;;
40150;SDS011;25866;52.420;10.640;2023-05-10T03:39:22;5.05;;;3.20;;
40150;SDS011;25866;52.420;10.640;2023-05-10T03:41:49;5.07;;;3.20;;
40150;SDS011;25866;52.420;10.640;2023-05-10T03:44:14;6.20;;;3.00;;
40150;SDS011;25866;52.420;10.640;2023-05-10T03:46:40;4.85;;;3.10;;
40150;SDS011;25866;52.420;10.640;2023-05-10T03:49:05;5.95;;;3.05;;
40150;SDS011;25866;52.420;10.640;2023-05-10T03:51:32;4.53;;;3.38;;
40150;SDS011;25866;52.420;10.640;2023-05-10T03:53:58;6.15;;;3.20;;
40150;SDS011;25866;52.420;10.640;2023-05-10T03:56:23;6.80;;;3.15;;
40150;SDS011;25866;52.420;10.640;2023-05-10T03:58:49;6.45;;;2.95;;
40150;SDS011;25866;52.420;10.640;2023-05-10T04:01:15;4.57;;;3.38;;
40150;SDS011;25866;52.420;10.640;2023-05-10T04:03:40;4.55;;;3.38;;
40150;SDS011;25866;52.420;10.640;2023-05-10T04:06:06;5.30;;;3.10;;
40150;SDS011;25866;52.420;10.640;2023-05-10T04:08:34;4.03;;;3.00;;
40150;SDS011;25866;52.420;10.640;2023-05-10T04:11:11;5.22;;;3.33;;
40150;SDS011;25866;52.420;10.640;2023-05-10T04:13:38;5.28;;;3.10;;
40150;SDS011;25866;52.420;10.640;2023-05-10T04:16:03;4.93;;;3.30;;
40150;SDS011;25866;52.420;10.640;2023-05-10T04:18:30;8.63;;;3.17;;
40150;SDS011;25866;52.420;10.640;2023-05-10T04:21:03;5.47;;;3.22;;
40150;SDS011;25866;52.420;10.640;2023-05-10T04:23:28;4.75;;;3.45;;
40150;SDS011;25866;52.420;10.640;2023-05-10T04:26:00;4.78;;;3.00;;
40150;SDS011;25866;52.420;10.640;2023-05-10T04:28:26;3.60;;;3.17;;
40150;SDS011;25866;52.420;10.640;2023-05-10T04:31:02;5.35;;;3.75;;
40150;SDS011;25866;52.420;10.640;2023-05-10T04:33:28;6.25;;;3.60;;
40150;SDS011;25866;52.420;10.640;2023-05-10T04:35:54;5.38;;;3.00;;
40150;SDS011;25866;52.420;10.640;2023-05-10T04:38:20;3.72;;;3.15;;
40150;SDS011;25866;52.420;10.640;2023-05-10T04:40:47;3.60;;;3.00;;
40150;SDS011;25866;52.420;10.640;2023-05-10T04:43:12;3.78;;;3.10;;
40150;SDS011;25866;52.420;10.640;2023-05-10T04:45:39;4.50;;;3.17;;
40150;SDS011;25866;52.420;10.640;2023-05-10T04:48:05;4.47;;;3.30;;
40150;SDS011;25866;52.420;10.640;2023-05-10T04:50:31;5.30;;;3.30;;
40150;SDS011;25866;52.420;10.640;2023-05-10T04:52:57;5.63;;;3.58;;
40150;SDS011;25866;52.420;10.640;2023-05-10T04:55:23;4.40;;;3.53;;
40150;SDS011;25866;52.420;10.640;2023-05-10T04:57:49;3.65;;;3.22;;
40150;SDS011;25866;52.420;10.640;2023-05-10T05:00:14;5.60;;;3.58;;
40150;SDS011;25866;52.420;10.640;2023-05-10T05:02:46;6.30;;;3.40;;
40150;SDS011;25866;52.420;10.640;2023-05-10T05:05:12;7.82;;;3.30;;
40150;SDS011;25866;52.420;10.640;2023-05-10T05:07:38;6.75;;;3.40;;
40150;SDS011;25866;52.420;10.640;2023-05-10T05:10:05;5.25;;;3.08;;
40150;SDS011;25866;52.420;10.640;2023-05-10T05:12:31;4.35;;;3.30;;
40150;SDS011;25866;52.420;10.640;2023-05-10T05:14:57;6.07;;;3.83;;
40150;SDS011;25866;52.420;10.640;2023-05-10T05:17:23;6.00;;;3.55;;
40150;SDS011;25866;52.420;10.640;2023-05-10T05:19:49;4.65;;;3.30;;
40150;SDS011;25866;52.420;10.640;2023-05-10T05:22:15;6.55;;;3.03;;
40150;SDS011;25866;52.420;10.640;2023-05-10T05:24:41;5.75;;;3.38;;
40150;SDS011;25866;52.420;10.640;2023-05-10T05:27:07;6.90;;;3.40;;
40150;SDS011;25866;52.420;10.640;2023-05-10T05:29:32;4.18;;;2.90;;
40150;SDS011;25866;52.420;10.640;2023-05-10T05:32:00;7.97;;;3.65;;
40150;SDS011;25866;52.420;10.640;2023-05-10T05:34:26;4.22;;;3.28;;
40150;SDS011;25866;52.420;10.640;2023-05-10T05:36:52;4.70;;;3.30;;
40150;SDS011;25866;52.420;10.640;2023-05-10T05:39:18;5.35;;;3.60;;
40150;SDS011;25866;52.420;10.640;2023-05-10T05:41:46;5.55;;;3.72;;
40150;SDS011;25866;52.420;10.640;2023-05-10T05:44:12;9.07;;;4.18;;
40150;SDS011;25866;52.420;10.640;2023-05-10T05:46:38;9.45;;;4.03;;
40150;SDS011;25866;52.420;10.640;2023-05-10T05:49:03;6.57;;;3.47;;
40150;SDS011;25866;52.420;10.640;2023-05-10T05:51:29;5.70;;;3.50;;
40150;SDS011;25866;52.420;10.640;2023-05-10T05:53:56;5.32;;;3.15;;
40150;SDS011;25866;52.420;10.640;2023-05-10T05:56:21;6.28;;;3.60;;
40150;SDS011;25866;52.420;10.640;2023-05-10T05:58:52;4.28;;;3.45;;
40150;SDS011;25866;52.420;10.640;2023-05-10T06:01:18;4.97;;;3.67;;
40150;SDS011;25866;52.420;10.640;2023-05-10T06:03:50;4.22;;;3.33;;
40150;SDS011;25866;52.420;10.640;2023-05-10T06:06:15;11.05;;;3.78;;
40150;SDS011;25866;52.420;10.640;2023-05-10T06:08:41;6.03;;;3.67;;
40150;SDS011;25866;52.420;10.640;2023-05-10T06:11:07;6.45;;;4.03;;
40150;SDS011;25866;52.420;10.640;2023-05-10T06:13:39;7.10;;;3.45;;
40150;SDS011;25866;52.420;10.640;2023-05-10T06:16:08;5.95;;;3.65;;
40150;SDS011;25866;52.420;10.640;2023-05-10T06:18:34;5.88;;;3.47;;
40150;SDS011;25866;52.420;10.640;2023-05-10T06:21:00;5.50;;;3.92;;
40150;SDS011;25866;52.420;10.640;2023-05-10T06:23:27;5.30;;;3.83;;
40150;SDS011;25866;52.420;10.640;2023-05-10T06:25:52;5.32;;;3.72;;
40150;SDS011;25866;52.420;10.640;2023-05-10T06:28:18;10.98;;;4.03;;
40150;SDS011;25866;52.420;10.640;2023-05-10T06:30:44;4.25;;;3.65;;
40150;SDS011;25866;52.420;10.640;2023-05-10T06:33:09;10.75;;;4.20;;
40150;SDS011;25866;52.420;10.640;2023-05-10T06:35:35;7.47;;;3.60;;
40150;SDS011;25866;52.420;10.640;2023-05-10T06:38:01;5.75;;;3.75;;
40150;SDS011;25866;52.420;10.640;2023-05-10T06:40:27;5.03;;;3.70;;
40150;SDS011;25866;52.420;10.640;2023-05-10T06:42:54;3.92;;;3.30;;
40150;SDS011;25866;52.420;10.640;2023-05-10T06:45:20;5.50;;;3.35;;
40150;SDS011;25866;52.420;10.640;2023-05-10T06:47:45;4.60;;;3.47;;
40150;SDS011;25866;52.420;10.640;2023-05-10T06:50:11;5.25;;;3.33;;
40150;SDS011;25866;52.420;10.640;2023-05-10T06:55:23;8.15;;;3.85;;
40150;SDS011;25866;52.420;10.640;2023-05-10T06:57:48;10.40;;;3.97;;
40150;SDS011;25866;52.420;10.640;2023-05-10T07:00:15;7.13;;;3.55;;
40150;SDS011;25866;52.420;10.640;2023-05-10T07:02:42;7.35;;;3.75;;
40150;SDS011;25866;52.420;10.640;2023-05-10T07:05:08;7.10;;;3.60;;
40150;SDS011;25866;52.420;10.640;2023-05-10T07:07:34;6.38;;;3.85;;
40150;SDS011;25866;52.420;10.640;2023-05-10T07:10:00;6.65;;;3.70;;
40150;SDS011;25866;52.420;10.640;2023-05-10T07:12:26;8.45;;;3.88;;
40150;SDS011;25866;52.420;10.640;2023-05-10T07:14:52;6.60;;;3.38;;
40150;SDS011;25866;52.420;10.640;2023-05-10T07:17:17;4.68;;;3.72;;
40150;SDS011;25866;52.420;10.640;2023-05-10T07:19:43;5.90;;;3.58;;
40150;SDS011;25866;52.420;10.640;2023-05-10T07:22:09;6.78;;;3.50;;
40150;SDS011;25866;52.420;10.640;2023-05-10T07:24:41;4.25;;;3.58;;
40150;SDS011;25866;52.420;10.640;2023-05-10T07:27:07;8.38;;;4.00;;
40150;SDS011;25866;52.420;10.640;2023-05-10T07:29:33;7.03;;;3.88;;
40150;SDS011;25866;52.420;10.640;2023-05-10T07:31:58;9.30;;;4.10;;
40150;SDS011;25866;52.420;10.640;2023-05-10T07:34:24;4.85;;;3.53;;
40150;SDS011;25866;52.420;10.640;2023-05-10T07:36:50;5.82;;;4.00;;
40150;SDS011;25866;52.420;10.640;2023-05-10T07:39:16;5.78;;;4.28;;
40150;SDS011;25866;52.420;10.640;2023-05-10T07:41:42;4.68;;;3.90;;
40150;SDS011;25866;52.420;10.640;2023-05-10T07:44:09;5.63;;;4.32;;
40150;SDS011;25866;52.420;10.640;2023-05-10T07:46:35;7.35;;;3.88;;
40150;SDS011;25866;52.420;10.640;2023-05-10T07:49:00;7.55;;;4.50;;
40150;SDS011;25866;52.420;10.640;2023-05-10T07:51:29;10.98;;;4.38;;
40150;SDS011;25866;52.420;10.640;2023-05-10T07:53:55;6.25;;;4.57;;
40150;SDS011;25866;52.420;10.640;2023-05-10T07:58:50;6.15;;;4.10;;
40150;SDS011;25866;52.420;10.640;2023-05-10T08:01:17;7.82;;;4.65;;
40150;SDS011;25866;52.420;10.640;2023-05-10T08:03:42;6.13;;;4.63;;
40150;SDS011;25866;52.420;10.640;2023-05-10T08:06:08;7.55;;;4.78;;
40150;SDS011;25866;52.420;10.640;2023-05-10T08:08:34;6.28;;;4.45;;
40150;SDS011;25866;52.420;10.640;2023-05-10T08:10:59;9.00;;;5.70;;
40150;SDS011;25866;52.420;10.640;2023-05-10T08:13:25;6.72;;;4.55;;
40150;SDS011;25866;52.420;10.640;2023-05-10T08:15:53;5.63;;;4.63;;
40150;SDS011;25866;52.420;10.640;2023-05-10T08:18:19;7.35;;;5.25;;
40150;SDS011;25866;52.420;10.640;2023-05-10T08:20:45;5.63;;;4.80;;
40150;SDS011;25866;52.420;10.640;2023-05-10T08:23:12;6.43;;;5.03;;
40150;SDS011;25866;52.420;10.640;2023-05-10T08:25:39;8.48;;;4.65;;
40150;SDS011;25866;52.420;10.640;2023-05-10T08:28:05;8.57;;;5.35;;
40150;SDS011;25866;52.420;10.640;2023-05-10T08:30:31;7.68;;;5.25;;
40150;SDS011;25866;52.420;10.640;2023-05-10T08:32:56;8.50;;;5.55;;
40150;SDS011;25866;52.420;10.640;2023-05-10T08:35:22;8.93;;;5.97;;
40150;SDS011;25866;52.420;10.640;2023-05-10T08:37:48;6.93;;;5.70;;
40150;SDS011;25866;52.420;10.640;2023-05-10T08:40:13;6.50;;;5.70;;
40150;SDS011;25866;52.420;10.640;2023-05-10T08:42:42;6.40;;;5.38;;
40150;SDS011;25866;52.420;10.640;2023-05-10T08:45:13;6.15;;;5.50;;
40150;SDS011;25866;52.420;10.640;2023-05-10T08:47:42;7.88;;;5.70;;
40150;SDS011;25866;52.420;10.640;2023-05-10T08:50:08;6.82;;;5.97;;
40150;SDS011;25866;52.420;10.640;2023-05-10T08:52:35;9.75;;;6.50;;
40150;SDS011;25866;52.420;10.640;2023-05-10T08:55:05;12.18;;;6.63;;
40150;SDS011;25866;52.420;10.640;2023-05-10T08:57:31;10.45;;;6.07;;
40150;SDS011;25866;52.420;10.640;2023-05-10T08:59:57;9.02;;;6.25;;
40150;SDS011;25866;52.420;10.640;2023-05-10T09:02:25;8.55;;;5.90;;
40150;SDS011;25866;52.420;10.640;2023-05-10T09:04:52;10.65;;;6.35;;
40150;SDS011;25866;52.420;10.640;2023-05-10T09:07:18;10.70;;;6.25;;
40150;SDS011;25866;52.420;10.640;2023-05-10T09:09:45;8.88;;;6.78;;
40150;SDS011;25866;52.420;10.640;2023-05-10T09:12:11;8.35;;;6.50;;
40150;SDS011;25866;52.420;10.640;2023-05-10T09:14:40;8.27;;;6.50;;
40150;SDS011;25866;52.420;10.640;2023-05-10T09:17:09;8.48;;;6.78;;
40150;SDS011;25866;52.420;10.640;2023-05-10T09:19:35;11.32;;;7.07;;
40150;SDS011;25866;52.420;10.640;2023-05-10T09:22:04;9.07;;;7.03;;
40150;SDS011;25866;52.420;10.640;2023-05-10T09:24:46;10.30;;;7.10;;
40150;SDS011;25866;52.420;10.640;2023-05-10T09:27:12;9.45;;;6.50;;
40150;SDS011;25866;52.420;10.640;2023-05-10T09:29:38;7.97;;;6.65;;
40150;SDS011;25866;52.420;10.640;2023-05-10T09:32:05;8.55;;;7.13;;
40150;SDS011;25866;52.420;10.640;2023-05-10T09:34:31;7.88;;;6.60;;
40150;SDS011;25866;52.420;10.640;2023-05-10T09:36:59;9.43;;;7.20;;
40150;SDS011;25866;52.420;10.640;2023-05-10T09:39:30;8.27;;;7.15;;
40150;SDS011;25866;52.420;10.640;2023-05-10T09:42:00;10.38;;;7.57;;
40150;SDS011;25866;52.420;10.640;2023-05-10T09:44:34;8.25;;;6.85;;
40150;SDS011;25866;52.420;10.640;2023-05-10T09:47:05;11.27;;;7.30;;
40150;SDS011;25866;52.420;10.640;2023-05-10T09:49:31;7.95;;;7.15;;
40150;SDS011;25866;52.420;10.640;2023-05-10T09:54:30;7.75;;;6.75;;
40150;SDS011;25866;52.420;10.640;2023-05-10T09:56:57;9.15;;;7.80;;
40150;SDS011;25866;52.420;10.640;2023-05-10T09:59:24;13.13;;;7.18;;
40150;SDS011;25866;52.420;10.640;2023-05-10T10:01:52;11.77;;;8.10;;
40150;SDS011;25866;52.420;10.640;2023-05-10T10:04:20;10.23;;;7.90;;
40150;SDS011;25866;52.420;10.640;2023-05-10T10:06:46;9.15;;;7.80;;
40150;SDS011;25866;52.420;10.640;2023-05-10T10:09:22;9.27;;;8.07;;
40150;SDS011;25866;52.420;10.640;2023-05-10T10:11:49;10.20;;;7.88;;
40150;SDS011;25866;52.420;10.640;2023-05-10T10:14:16;11.77;;;7.72;;
40150;SDS011;25866;52.420;10.640;2023-05-10T10:16:46;11.70;;;7.93;;
40150;SDS011;25866;52.420;10.640;2023-05-10T10:19:13;8.50;;;7.45;;
40150;SDS011;25866;52.420;10.640;2023-05-10T10:21:41;8.27;;;7.43;;
40150;SDS011;25866;52.420;10.640;2023-05-10T10:24:07;9.60;;;7.15;;
40150;SDS011;25866;52.420;10.640;2023-05-10T10:26:33;10.25;;;7.88;;
40150;SDS011;25866;52.420;10.640;2023-05-10T10:29:04;9.90;;;7.63;;
40150;SDS011;25866;52.420;10.640;2023-05-10T10:31:57;9.48;;;7.35;;
40150;SDS011;25866;52.420;10.640;2023-05-10T10:34:36;8.30;;;6.82;;
40150;SDS011;25866;52.420;10.640;2023-05-10T10:37:05;8.05;;;6.47;;
40150;SDS011;25866;52.420;10.640;2023-05-10T10:39:31;5.60;;;5.05;;
40150;SDS011;25866;52.420;10.640;2023-05-10T10:41:58;4.85;;;4.32;;
40150;SDS011;25866;52.420;10.640;2023-05-10T10:47:03;4.60;;;4.10;;
40150;SDS011;25866;52.420;10.640;2023-05-10T11:03:10;2.63;;;2.03;;
40150;SDS011;25866;52.420;10.640;2023-05-10T11:05:37;2.05;;;1.85;;
40150;SDS011;25866;52.420;10.640;2023-05-10T11:08:47;2.00;;;1.80;;
40150;SDS011;25866;52.420;10.640;2023-05-10T11:11:12;1.38;;;1.27;;
40150;SDS011;25866;52.420;10.640;2023-05-10T11:13:46;2.33;;;1.10;;
40150;SDS011;25866;52.420;10.640;2023-05-10T11:21:31;2.10;;;1.60;;
40150;SDS011;25866;52.420;10.640;2023-05-10T11:24:01;1.45;;;1.30;;
40150;SDS011;25866;52.420;10.640;2023-05-10T11:26:31;1.30;;;1.20;;
40150;SDS011;25866;52.420;10.640;2023-05-10T11:28:59;3.35;;;1.30;;
40150;SDS011;25866;52.420;10.640;2023-05-10T11:31:26;1.90;;;1.30;;
40150;SDS011;25866;52.420;10.640;2023-05-10T11:33:53;3.08;;;1.30;;
40150;SDS011;25866;52.420;10.640;2023-05-10T11:36:21;1.25;;;1.00;;
40150;SDS011;25866;52.420;10.640;2023-05-10T11:38:57;2.35;;;0.82;;
40150;SDS011;25866;52.420;10.640;2023-05-10T11:41:23;0.93;;;0.73;;
40150;SDS011;25866;52.420;10.640;2023-05-10T11:43:50;1.45;;;0.90;;
40150;SDS011;25866;52.420;10.640;2023-05-10T11:46:21;2.03;;;1.20;;
40150;SDS011;25866;52.420;10.640;2023-05-10T11:48:49;2.25;;;1.33;;
40150;SDS011;25866;52.420;10.640;2023-05-10T11:51:22;2.67;;;1.30;;
40150;SDS011;25866;52.420;10.640;2023-05-10T11:53:49;1.42;;;1.08;;
40150;SDS011;25866;52.420;10.640;2023-05-10T11:56:17;1.00;;;0.90;;
40150;SDS011;25866;52.420;10.640;2023-05-10T11:58:55;1.65;;;0.70;;
40150;SDS011;25866;52.420;10.640;2023-05-10T12:01:22;1.02;;;0.80;;
40150;SDS011;25866;52.420;10.640;2023-05-10T12:03:50;0.93;;;0.80;;
40150;SDS011;25866;52.420;10.640;2023-05-10T12:06:17;2.00;;;0.90;;
40150;SDS011;25866;52.420;10.640;2023-05-10T12:08:45;2.65;;;1.00;;
40150;SDS011;25866;52.420;10.640;2023-05-10T12:11:13;1.27;;;0.98;;
40150;SDS011;25866;52.420;10.640;2023-05-10T12:13:43;1.30;;;0.90;;
40150;SDS011;25866;52.420;10.640;2023-05-10T12:16:21;1.15;;;0.90;;
40150;SDS011;25866;52.420;10.640;2023-05-10T12:21:20;1.40;;;1.05;;
40150;SDS011;25866;52.420;10.640;2023-05-10T12:23:47;1.85;;;1.50;;
40150;SDS011;25866;52.420;10.640;2023-05-10T12:26:34;2.17;;;1.75;;
40150;SDS011;25866;52.420;10.640;2023-05-10T12:29:13;2.00;;;1.90;;
40150;SDS011;25866;52.420;10.640;2023-05-10T12:31:53;1.98;;;1.77;;
40150;SDS011;25866;52.420;10.640;2023-05-10T12:34:33;2.00;;;1.80;;
40150;SDS011;25866;52.420;10.640;2023-05-10T12:37:01;2.40;;;2.20;;
40150;SDS011;25866;52.420;10.640;2023-05-10T12:39:47;2.60;;;2.40;;
40150;SDS011;25866;52.420;10.640;2023-05-10T12:42:12;2.63;;;2.42;;
40150;SDS011;25866;52.420;10.640;2023-05-10T12:44:38;4.32;;;2.88;;
40150;SDS011;25866;52.420;10.640;2023-05-10T12:47:04;3.05;;;2.75;;
40150;SDS011;25866;52.420;10.640;2023-05-10T12:49:31;2.97;;;2.67;;
40150;SDS011;25866;52.420;10.640;2023-05-10T12:51:57;2.95;;;2.70;;
40150;SDS011;25866;52.420;10.640;2023-05-10T12:54:29;3.47;;;2.60;;
40150;SDS011;25866;52.420;10.640;2023-05-10T12:56:55;2.85;;;2.65;;
40150;SDS011;25866;52.420;10.640;2023-05-10T12:59:22;2.55;;;2.22;;
40150;SDS011;25866;52.420;10.640;2023-05-10T13:01:47;2.85;;;2.65;;
40150;SDS011;25866;52.420;10.640;2023-05-10T13:04:13;2.50;;;2.30;;
40150;SDS011;25866;52.420;10.640;2023-05-10T13:06:39;2.20;;;2.00;;
40150;SDS011;25866;52.420;10.640;2023-05-10T13:09:07;2.50;;;2.30;;
40150;SDS011;25866;52.420;10.640;2023-05-10T13:11:32;6.05;;;2.20;;
40150;SDS011;25866;52.420;10.640;2023-05-10T13:13:58;2.67;;;2.38;;
40150;SDS011;25866;52.420;10.640;2023-05-10T13:16:24;2.92;;;2.72;;
40150;SDS011;25866;52.420;10.640;2023-05-10T13:18:51;2.70;;;2.50;;
40150;SDS011;25866;52.420;10.640;2023-05-10T13:21:17;3.17;;;2.83;;
40150;SDS011;25866;52.420;10.640;2023-05-10T13:23:42;2.95;;;2.72;;
40150;SDS011;25866;52.420;10.640;2023-05-10T13:26:11;2.72;;;2.53;;
40150;SDS011;25866;52.420;10.640;2023-05-10T13:28:43;2.88;;;2.20;;
40150;SDS011;25866;52.420;10.640;2023-05-10T13:31:10;2.00;;;1.80;;
40150;SDS011;25866;52.420;10.640;2023-05-10T13:33:36;2.42;;;2.22;;
40150;SDS011;25866;52.420;10.640;2023-05-10T13:36:02;2.65;;;2.45;;
40150;SDS011;25866;52.420;10.640;2023-05-10T13:38:27;2.60;;;2.40;;
40150;SDS011;25866;52.420;10.640;2023-05-10T13:43:29;2.40;;;2.20;;
40150;SDS011;25866;52.420;10.640;2023-05-10T13:45:55;2.30;;;2.10;;
40150;SDS011;25866;52.420;10.640;2023-05-10T13:48:20;2.63;;;2.42;;
40150;SDS011;25866;52.420;10.640;2023-05-10T13:50:46;2.75;;;2.28;;
40150;SDS011;25866;52.420;10.640;2023-05-10T13:53:12;3.40;;;2.83;;
40150;SDS011;25866;52.420;10.640;2023-05-10T13:55:38;2.92;;;2.63;;
40150;SDS011;25866;52.420;10.640;2023-05-10T13:58:03;2.78;;;2.58;;
40150;SDS011;25866;52.420;10.640;2023-05-10T14:00:30;3.70;;;2.45;;
40150;SDS011;25866;52.420;10.640;2023-05-10T14:02:56;3.75;;;2.45;;
40150;SDS011;25866;52.420;10.640;2023-05-10T14:05:22;2.72;;;2.53;;
40150;SDS011;25866;52.420;10.640;2023-05-10T14:07:48;2.70;;;2.38;;
40150;SDS011;25866;52.420;10.640;2023-05-10T14:10:17;4.18;;;2.10;;
40150;SDS011;25866;52.420;10.640;2023-05-10T14:12:45;3.25;;;2.90;;
40150;SDS011;25866;52.420;10.640;2023-05-10T14:15:11;2.90;;;2.70;;
40150;SDS011;25866;52.420;10.640;2023-05-10T14:17:37;5.50;;;2.85;;
40150;SDS011;25866;52.420;10.640;2023-05-10T14:20:03;4.53;;;3.80;;
40150;SDS011;25866;52.420;10.640;2023-05-10T14:22:29;3.40;;;3.10;;
40150;SDS011;25866;52.420;10.640;2023-05-10T14:24:55;3.15;;;2.80;;
40150;SDS011;25866;52.420;10.640;2023-05-10T14:27:20;3.88;;;2.90;;
40150;SDS011;25866;52.420;10.640;2023-05-10T14:29:47;3.38;;;2.70;;
40150;SDS011;25866;52.420;10.640;2023-05-10T14:32:12;2.75;;;2.00;;
40150;SDS011;25866;52.420;10.640;2023-05-10T14:34:38;4.20;;;2.10;;
40150;SDS011;25866;52.420;10.640;2023-05-10T14:37:04;2.22;;;2.03;;
40150;SDS011;25866;52.420;10.640;2023-05-10T14:39:30;2.60;;;2.03;;
40150;SDS011;25866;52.420;10.640;2023-05-10T14:41:55;3.03;;;2.15;;
40150;SDS011;25866;52.420;10.640;2023-05-10T14:44:24;2.00;;;1.67;;
40150;SDS011;25866;52.420;10.640;2023-05-10T14:46:50;2.65;;;1.90;;
40150;SDS011;25866;52.420;10.640;2023-05-10T14:49:15;2.05;;;1.85;;
40150;SDS011;25866;52.420;10.640;2023-05-10T14:51:41;2.55;;;2.00;;
40150;SDS011;25866;52.420;10.640;2023-05-10T14:54:07;2.05;;;1.70;;
40150;SDS011;25866;52.420;10.640;2023-05-10T14:56:33;1.73;;;1.50;;
40150;SDS011;25866;52.420;10.640;2023-05-10T14:58:58;4.82;;;1.38;;
40150;SDS011;25866;52.420;10.640;2023-05-10T15:01:26;2.55;;;1.88;;
40150;SDS011;25866;52.420;10.640;2023-05-10T15:03:52;2.03;;;1.80;;
40150;SDS011;25866;52.420;10.640;2023-05-10T15:06:17;2.10;;;1.90;;
40150;SDS011;25866;52.420;10.640;2023-05-10T15:08:50;4.30;;;1.90;;
40150;SDS011;25866;52.420;10.640;2023-05-10T15:11:18;2.63;;;1.70;;
40150;SDS011;25866;52.420;10.640;2023-05-10T15:13:45;2.00;;;1.65;;
40150;SDS011;25866;52.420;10.640;2023-05-10T15:16:11;3.22;;;2.00;;
40150;SDS011;25866;52.420;10.640;2023-05-10T15:18:36;1.55;;;1.45;;
40150;SDS011;25866;52.420;10.640;2023-05-10T15:21:03;3.20;;;1.80;;
40150;SDS011;25866;52.420;10.640;2023-05-10T15:23:29;2.00;;;1.58;;
40150;SDS011;25866;52.420;10.640;2023-05-10T15:25:55;1.80;;;1.50;;
40150;SDS011;25866;52.420;10.640;2023-05-10T15:28:21;1.58;;;1.45;;